sensor_id;sensor_type;location;lat;lon;timestamp;temperature;humidity
46159;DHT22;31888;44.512;26.104;2023-02-01T00:01:07;2.50;99.90
46159;DHT22;31888;44.512;26.104;2023-02-01T00:03:32;2.50;99.90
46159;DHT22;31888;44.512;26.104;2023-02-01T00:05:59;2.60;99.90
46159;DHT22;31888;44.512;26.104;2023-02-01T00:08:24;2.60;99.90
46159;DHT22;31888;44.512;26.104;2023-02-01T00:10:48;2.60;99.90
46159;DHT22;31888;44.512;26.104;2023-02-01T00:13:13;2.70;99.90
46159;DHT22;31888;44.512;26.104;2023-02-01T00:15:37;2.70;99.90
46159;DHT22;31888;44.512;26.104;2023-02-01T00:18:02;2.90;99.90
46159;DHT22;31888;44.512;26.104;2023-02-01T00:20:26;2.90;99.90
46159;DHT22;31888;44.512;26.104;2023-02-01T00:22:52;2.80;99.90
46159;DHT22;31888;44.512;26.104;2023-02-01T00:25:17;2.90;99.90
46159;DHT22;31888;44.512;26.104;2023-02-01T00:27:41;2.90;99.90
46159;DHT22;31888;44.512;26.104;2023-02-01T00:30:07;2.70;99.90
46159;DHT22;31888;44.512;26.104;2023-02-01T00:32:32;2.70;99.90
46159;DHT22;31888;44.512;26.104;2023-02-01T00:34:56;2.70;99.90
46159;DHT22;31888;44.512;26.104;2023-02-01T00:37:21;2.70;99.90
46159;DHT22;31888;44.512;26.104;2023-02-01T00:39:47;2.60;99.90
46159;DHT22;31888;44.512;26.104;2023-02-01T00:42:12;2.60;99.90
46159;DHT22;31888;44.512;26.104;2023-02-01T00:44:37;2.50;99.90
46159;DHT22;31888;44.512;26.104;2023-02-01T00:47:02;2.50;99.90
46159;DHT22;31888;44.512;26.104;2023-02-01T00:49:27;2.50;99.90
46159;DHT22;31888;44.512;26.104;2023-02-01T00:51:52;2.50;99.90
46159;DHT22;31888;44.512;26.104;2023-02-01T00:54:16;2.50;99.90
46159;DHT22;31888;44.512;26.104;2023-02-01T00:56:42;2.50;99.90
46159;DHT22;31888;44.512;26.104;2023-02-01T00:59:10;2.40;99.90
46159;DHT22;31888;44.512;26.104;2023-02-01T01:01:34;2.40;99.90
46159;DHT22;31888;44.512;26.104;2023-02-01T01:03:59;2.40;99.90
46159;DHT22;31888;44.512;26.104;2023-02-01T01:06:26;2.40;99.90
46159;DHT22;31888;44.512;26.104;2023-02-01T01:08:52;2.30;99.90
46159;DHT22;31888;44.512;26.104;2023-02-01T01:11:18;2.40;99.90
46159;DHT22;31888;44.512;26.104;2023-02-01T01:13:46;2.30;99.90
46159;DHT22;31888;44.512;26.104;2023-02-01T01:16:11;2.20;99.90
46159;DHT22;31888;44.512;26.104;2023-02-01T01:18:37;2.10;99.90
46159;DHT22;31888;44.512;26.104;2023-02-01T01:21:03;2.10;99.90
46159;DHT22;31888;44.512;26.104;2023-02-01T01:23:28;2.10;99.90
46159;DHT22;31888;44.512;26.104;2023-02-01T01:25:52;2.00;99.90
46159;DHT22;31888;44.512;26.104;2023-02-01T01:28:17;2.10;99.90
46159;DHT22;31888;44.512;26.104;2023-02-01T01:30:43;2.00;99.90
46159;DHT22;31888;44.512;26.104;2023-02-01T01:33:08;2.00;99.90
46159;DHT22;31888;44.512;26.104;2023-02-01T01:35:33;1.90;99.90
46159;DHT22;31888;44.512;26.104;2023-02-01T01:37:58;1.80;99.90
46159;DHT22;31888;44.512;26.104;2023-02-01T01:40:23;1.80;99.90
46159;DHT22;31888;44.512;26.104;2023-02-01T01:42:47;1.60;99.90
46159;DHT22;31888;44.512;26.104;2023-02-01T01:45:23;1.60;99.90
46159;DHT22;31888;44.512;26.104;2023-02-01T01:47:52;1.70;99.90
46159;DHT22;31888;44.512;26.104;2023-02-01T01:50:22;1.60;99.90
46159;DHT22;31888;44.512;26.104;2023-02-01T01:52:49;1.60;99.90
46159;DHT22;31888;44.512;26.104;2023-02-01T01:55:15;1.60;99.90
46159;DHT22;31888;44.512;26.104;2023-02-01T01:57:43;1.60;99.90
46159;DHT22;31888;44.512;26.104;2023-02-01T02:00:10;1.60;99.90
46159;DHT22;31888;44.512;26.104;2023-02-01T02:02:36;1.50;99.90
46159;DHT22;31888;44.512;26.104;2023-02-01T02:05:03;1.50;99.90
46159;DHT22;31888;44.512;26.104;2023-02-01T02:07:30;1.50;99.90
46159;DHT22;31888;44.512;26.104;2023-02-01T02:09:56;1.40;99.90
46159;DHT22;31888;44.512;26.104;2023-02-01T02:12:24;1.50;99.90
46159;DHT22;31888;44.512;26.104;2023-02-01T02:14:49;1.60;99.90
46159;DHT22;31888;44.512;26.104;2023-02-01T02:17:25;1.40;99.90
46159;DHT22;31888;44.512;26.104;2023-02-01T02:32:36;1.60;99.90
46159;DHT22;31888;44.512;26.104;2023-02-01T02:35:11;1.50;99.90
46159;DHT22;31888;44.512;26.104;2023-02-01T02:37:42;1.50;99.90
46159;DHT22;31888;44.512;26.104;2023-02-01T02:40:16;1.50;99.90
46159;DHT22;31888;44.512;26.104;2023-02-01T02:42:52;1.60;99.90
46159;DHT22;31888;44.512;26.104;2023-02-01T02:45:42;1.40;99.90
46159;DHT22;31888;44.512;26.104;2023-02-01T02:48:29;1.30;99.90
46159;DHT22;31888;44.512;26.104;2023-02-01T02:51:03;1.20;99.90
46159;DHT22;31888;44.512;26.104;2023-02-01T02:53:48;1.20;99.90
46159;DHT22;31888;44.512;26.104;2023-02-01T02:56:32;1.30;99.90
46159;DHT22;31888;44.512;26.104;2023-02-01T02:59:18;1.30;99.90
46159;DHT22;31888;44.512;26.104;2023-02-01T03:02:03;1.20;99.90
46159;DHT22;31888;44.512;26.104;2023-02-01T03:04:45;1.40;99.90
46159;DHT22;31888;44.512;26.104;2023-02-01T03:07:15;1.40;99.90
46159;DHT22;31888;44.512;26.104;2023-02-01T03:09:41;1.40;99.90
46159;DHT22;31888;44.512;26.104;2023-02-01T03:12:12;1.50;99.90
46159;DHT22;31888;44.512;26.104;2023-02-01T03:15:00;1.50;99.90
46159;DHT22;31888;44.512;26.104;2023-02-01T03:17:28;1.30;99.90
46159;DHT22;31888;44.512;26.104;2023-02-01T03:19:57;1.30;99.90
46159;DHT22;31888;44.512;26.104;2023-02-01T03:22:27;1.30;99.90
46159;DHT22;31888;44.512;26.104;2023-02-01T03:24:57;1.20;99.90
46159;DHT22;31888;44.512;26.104;2023-02-01T03:27:29;1.20;99.90
46159;DHT22;31888;44.512;26.104;2023-02-01T03:30:02;1.20;99.90
46159;DHT22;31888;44.512;26.104;2023-02-01T03:32:29;1.10;99.90
46159;DHT22;31888;44.512;26.104;2023-02-01T03:35:14;1.20;99.90
46159;DHT22;31888;44.512;26.104;2023-02-01T03:37:40;1.20;99.90
46159;DHT22;31888;44.512;26.104;2023-02-01T03:40:07;1.20;99.90
46159;DHT22;31888;44.512;26.104;2023-02-01T03:42:38;1.20;99.90
46159;DHT22;31888;44.512;26.104;2023-02-01T03:45:08;1.30;99.90
46159;DHT22;31888;44.512;26.104;2023-02-01T03:47:37;1.30;99.90
46159;DHT22;31888;44.512;26.104;2023-02-01T03:50:07;1.30;99.90
46159;DHT22;31888;44.512;26.104;2023-02-01T03:52:36;1.20;99.90
46159;DHT22;31888;44.512;26.104;2023-02-01T03:55:06;1.20;99.90
46159;DHT22;31888;44.512;26.104;2023-02-01T03:57:35;1.20;99.90
46159;DHT22;31888;44.512;26.104;2023-02-01T04:00:05;1.20;99.90
46159;DHT22;31888;44.512;26.104;2023-02-01T04:02:35;1.10;99.90
46159;DHT22;31888;44.512;26.104;2023-02-01T04:05:00;1.20;99.90
46159;DHT22;31888;44.512;26.104;2023-02-01T04:07:24;1.20;99.90
46159;DHT22;31888;44.512;26.104;2023-02-01T04:09:49;1.30;99.90
46159;DHT22;31888;44.512;26.104;2023-02-01T04:12:15;1.20;99.90
46159;DHT22;31888;44.512;26.104;2023-02-01T04:14:39;1.20;99.90
46159;DHT22;31888;44.512;26.104;2023-02-01T04:17:04;1.20;99.90
46159;DHT22;31888;44.512;26.104;2023-02-01T04:19:28;1.30;99.90
46159;DHT22;31888;44.512;26.104;2023-02-01T04:21:53;1.30;99.90
46159;DHT22;31888;44.512;26.104;2023-02-01T04:24:17;1.30;99.90
46159;DHT22;31888;44.512;26.104;2023-02-01T04:26:42;1.30;99.90
46159;DHT22;31888;44.512;26.104;2023-02-01T04:29:10;1.30;99.90
46159;DHT22;31888;44.512;26.104;2023-02-01T04:31:34;1.20;99.90
46159;DHT22;31888;44.512;26.104;2023-02-01T04:33:59;1.30;99.90
46159;DHT22;31888;44.512;26.104;2023-02-01T04:36:24;1.40;99.90
46159;DHT22;31888;44.512;26.104;2023-02-01T04:38:49;1.40;99.90
46159;DHT22;31888;44.512;26.104;2023-02-01T04:41:13;1.40;99.90
46159;DHT22;31888;44.512;26.104;2023-02-01T04:43:38;1.50;99.90
46159;DHT22;31888;44.512;26.104;2023-02-01T04:46:04;1.20;99.90
46159;DHT22;31888;44.512;26.104;2023-02-01T04:48:29;1.20;99.90
46159;DHT22;31888;44.512;26.104;2023-02-01T04:50:53;1.20;99.90
46159;DHT22;31888;44.512;26.104;2023-02-01T04:53:18;1.30;99.90
46159;DHT22;31888;44.512;26.104;2023-02-01T04:55:43;1.20;99.90
46159;DHT22;31888;44.512;26.104;2023-02-01T04:58:07;1.10;99.90
46159;DHT22;31888;44.512;26.104;2023-02-01T05:00:32;0.90;99.90
46159;DHT22;31888;44.512;26.104;2023-02-01T05:02:58;0.90;99.90
46159;DHT22;31888;44.512;26.104;2023-02-01T05:05:23;0.90;99.90
46159;DHT22;31888;44.512;26.104;2023-02-01T05:07:48;0.90;99.90
46159;DHT22;31888;44.512;26.104;2023-02-01T05:10:12;0.90;99.90
46159;DHT22;31888;44.512;26.104;2023-02-01T05:12:37;1.00;99.90
46159;DHT22;31888;44.512;26.104;2023-02-01T05:15:19;1.10;99.90
46159;DHT22;31888;44.512;26.104;2023-02-01T05:17:43;1.00;99.90
46159;DHT22;31888;44.512;26.104;2023-02-01T05:20:10;1.00;99.90
46159;DHT22;31888;44.512;26.104;2023-02-01T05:22:35;1.00;99.90
46159;DHT22;31888;44.512;26.104;2023-02-01T05:25:00;1.10;99.90
46159;DHT22;31888;44.512;26.104;2023-02-01T05:27:25;1.00;99.90
46159;DHT22;31888;44.512;26.104;2023-02-01T05:29:49;1.00;99.90
46159;DHT22;31888;44.512;26.104;2023-02-01T05:32:14;1.20;99.90
46159;DHT22;31888;44.512;26.104;2023-02-01T05:34:44;1.10;99.90
46159;DHT22;31888;44.512;26.104;2023-02-01T05:37:11;1.10;99.90
46159;DHT22;31888;44.512;26.104;2023-02-01T05:39:35;1.20;99.90
46159;DHT22;31888;44.512;26.104;2023-02-01T05:42:00;1.40;99.90
46159;DHT22;31888;44.512;26.104;2023-02-01T05:44:24;1.50;99.90
46159;DHT22;31888;44.512;26.104;2023-02-01T05:46:49;1.70;99.90
46159;DHT22;31888;44.512;26.104;2023-02-01T05:49:15;2.00;99.90
46159;DHT22;31888;44.512;26.104;2023-02-01T05:51:39;2.30;99.90
46159;DHT22;31888;44.512;26.104;2023-02-01T05:54:05;2.50;99.90
46159;DHT22;31888;44.512;26.104;2023-02-01T05:56:30;2.80;99.90
46159;DHT22;31888;44.512;26.104;2023-02-01T05:58:54;3.10;99.90
46159;DHT22;31888;44.512;26.104;2023-02-01T06:01:19;3.30;99.90
46159;DHT22;31888;44.512;26.104;2023-02-01T06:03:44;3.30;99.90
46159;DHT22;31888;44.512;26.104;2023-02-01T06:06:08;3.50;99.90
46159;DHT22;31888;44.512;26.104;2023-02-01T06:08:33;4.40;99.90
46159;DHT22;31888;44.512;26.104;2023-02-01T06:10:59;5.00;98.80
46159;DHT22;31888;44.512;26.104;2023-02-01T06:13:24;5.50;97.40
46159;DHT22;31888;44.512;26.104;2023-02-01T06:15:49;5.80;96.70
46159;DHT22;31888;44.512;26.104;2023-02-01T06:18:14;5.80;96.70
46159;DHT22;31888;44.512;26.104;2023-02-01T06:20:38;6.20;95.50
46159;DHT22;31888;44.512;26.104;2023-02-01T06:23:03;6.20;95.70
46159;DHT22;31888;44.512;26.104;2023-02-01T06:25:28;6.20;95.30
46159;DHT22;31888;44.512;26.104;2023-02-01T06:27:55;6.30;95.20
46159;DHT22;31888;44.512;26.104;2023-02-01T06:30:20;6.50;94.90
46159;DHT22;31888;44.512;26.104;2023-02-01T06:32:50;6.80;94.00
46159;DHT22;31888;44.512;26.104;2023-02-01T06:35:17;6.80;94.10
46159;DHT22;31888;44.512;26.104;2023-02-01T06:37:41;7.00;93.50
46159;DHT22;31888;44.512;26.104;2023-02-01T06:40:07;7.30;93.40
46159;DHT22;31888;44.512;26.104;2023-02-01T06:42:32;7.70;92.70
46159;DHT22;31888;44.512;26.104;2023-02-01T06:44:58;7.70;92.60
46159;DHT22;31888;44.512;26.104;2023-02-01T06:47:24;7.60;92.80
46159;DHT22;31888;44.512;26.104;2023-02-01T06:49:48;7.80;92.20
46159;DHT22;31888;44.512;26.104;2023-02-01T06:52:13;7.40;92.00
46159;DHT22;31888;44.512;26.104;2023-02-01T06:54:37;7.30;92.20
46159;DHT22;31888;44.512;26.104;2023-02-01T06:57:02;7.10;92.70
46159;DHT22;31888;44.512;26.104;2023-02-01T06:59:27;7.10;92.50
46159;DHT22;31888;44.512;26.104;2023-02-01T07:01:56;7.10;92.60
46159;DHT22;31888;44.512;26.104;2023-02-01T07:04:20;7.30;92.20
46159;DHT22;31888;44.512;26.104;2023-02-01T07:06:45;6.90;92.10
46159;DHT22;31888;44.512;26.104;2023-02-01T07:09:09;6.70;92.40
46159;DHT22;31888;44.512;26.104;2023-02-01T07:11:35;6.70;93.00
46159;DHT22;31888;44.512;26.104;2023-02-01T07:14:02;6.90;93.40
46159;DHT22;31888;44.512;26.104;2023-02-01T07:16:29;7.00;92.40
46159;DHT22;31888;44.512;26.104;2023-02-01T07:19:04;7.00;92.00
46159;DHT22;31888;44.512;26.104;2023-02-01T07:21:29;6.70;92.70
46159;DHT22;31888;44.512;26.104;2023-02-01T07:23:54;6.70;92.40
46159;DHT22;31888;44.512;26.104;2023-02-01T07:26:18;6.90;92.30
46159;DHT22;31888;44.512;26.104;2023-02-01T07:28:43;6.80;92.20
46159;DHT22;31888;44.512;26.104;2023-02-01T07:31:10;6.70;92.20
46159;DHT22;31888;44.512;26.104;2023-02-01T07:33:35;6.40;92.20
46159;DHT22;31888;44.512;26.104;2023-02-01T07:36:03;6.10;93.30
46159;DHT22;31888;44.512;26.104;2023-02-01T07:38:29;6.20;93.30
46159;DHT22;31888;44.512;26.104;2023-02-01T07:40:57;6.10;93.60
46159;DHT22;31888;44.512;26.104;2023-02-01T07:43:22;5.80;94.20
46159;DHT22;31888;44.512;26.104;2023-02-01T07:45:51;5.80;94.10
46159;DHT22;31888;44.512;26.104;2023-02-01T07:48:16;5.80;94.60
46159;DHT22;31888;44.512;26.104;2023-02-01T07:50:41;5.80;93.80
46159;DHT22;31888;44.512;26.104;2023-02-01T07:53:09;5.80;94.80
46159;DHT22;31888;44.512;26.104;2023-02-01T07:55:37;5.90;94.40
46159;DHT22;31888;44.512;26.104;2023-02-01T07:58:02;5.80;94.00
46159;DHT22;31888;44.512;26.104;2023-02-01T08:00:26;5.60;95.30
46159;DHT22;31888;44.512;26.104;2023-02-01T08:03:08;5.60;95.60
46159;DHT22;31888;44.512;26.104;2023-02-01T08:05:33;5.80;94.90
46159;DHT22;31888;44.512;26.104;2023-02-01T08:08:00;5.80;95.00
46159;DHT22;31888;44.512;26.104;2023-02-01T08:10:26;5.90;94.30
46159;DHT22;31888;44.512;26.104;2023-02-01T08:12:50;6.10;94.00
46159;DHT22;31888;44.512;26.104;2023-02-01T08:15:16;5.90;94.60
46159;DHT22;31888;44.512;26.104;2023-02-01T08:17:40;5.90;94.80
46159;DHT22;31888;44.512;26.104;2023-02-01T08:20:06;5.80;95.00
46159;DHT22;31888;44.512;26.104;2023-02-01T08:22:31;5.70;95.40
46159;DHT22;31888;44.512;26.104;2023-02-01T08:24:56;5.70;94.70
46159;DHT22;31888;44.512;26.104;2023-02-01T08:27:26;5.40;95.40
46159;DHT22;31888;44.512;26.104;2023-02-01T08:29:50;5.50;95.60
46159;DHT22;31888;44.512;26.104;2023-02-01T08:32:16;5.50;95.60
46159;DHT22;31888;44.512;26.104;2023-02-01T08:34:41;5.50;95.70
46159;DHT22;31888;44.512;26.104;2023-02-01T08:37:05;5.70;95.70
46159;DHT22;31888;44.512;26.104;2023-02-01T08:39:30;5.90;95.50
46159;DHT22;31888;44.512;26.104;2023-02-01T08:41:54;6.20;95.00
46159;DHT22;31888;44.512;26.104;2023-02-01T08:44:38;6.40;94.70
46159;DHT22;31888;44.512;26.104;2023-02-01T08:47:03;6.50;93.80
46159;DHT22;31888;44.512;26.104;2023-02-01T08:49:28;6.50;94.10
46159;DHT22;31888;44.512;26.104;2023-02-01T08:51:52;6.50;94.00
46159;DHT22;31888;44.512;26.104;2023-02-01T08:54:22;6.50;93.80
46159;DHT22;31888;44.512;26.104;2023-02-01T08:56:47;6.40;94.30
46159;DHT22;31888;44.512;26.104;2023-02-01T08:59:12;6.50;94.30
46159;DHT22;31888;44.512;26.104;2023-02-01T09:01:38;6.60;93.80
46159;DHT22;31888;44.512;26.104;2023-02-01T09:04:02;6.50;94.10
46159;DHT22;31888;44.512;26.104;2023-02-01T09:06:27;6.40;94.20
46159;DHT22;31888;44.512;26.104;2023-02-01T09:08:52;6.30;94.00
46159;DHT22;31888;44.512;26.104;2023-02-01T09:11:18;6.10;94.40
46159;DHT22;31888;44.512;26.104;2023-02-01T09:13:43;6.10;94.20
46159;DHT22;31888;44.512;26.104;2023-02-01T09:16:08;6.30;94.20
46159;DHT22;31888;44.512;26.104;2023-02-01T09:18:34;6.30;94.40
46159;DHT22;31888;44.512;26.104;2023-02-01T09:21:17;6.40;94.20
46159;DHT22;31888;44.512;26.104;2023-02-01T09:23:42;6.50;93.90
46159;DHT22;31888;44.512;26.104;2023-02-01T09:26:08;6.80;93.10
46159;DHT22;31888;44.512;26.104;2023-02-01T09:28:36;6.80;93.60
46159;DHT22;31888;44.512;26.104;2023-02-01T09:31:02;7.30;93.10
46159;DHT22;31888;44.512;26.104;2023-02-01T09:33:27;7.50;92.70
46159;DHT22;31888;44.512;26.104;2023-02-01T09:35:57;7.70;92.20
46159;DHT22;31888;44.512;26.104;2023-02-01T09:38:21;7.90;91.70
46159;DHT22;31888;44.512;26.104;2023-02-01T09:40:48;8.30;90.70
46159;DHT22;31888;44.512;26.104;2023-02-01T09:43:21;8.30;90.70
46159;DHT22;31888;44.512;26.104;2023-02-01T09:45:55;8.30;90.70
46159;DHT22;31888;44.512;26.104;2023-02-01T09:48:29;8.30;90.40
46159;DHT22;31888;44.512;26.104;2023-02-01T09:50:58;8.50;90.20
46159;DHT22;31888;44.512;26.104;2023-02-01T09:53:27;8.80;89.70
46159;DHT22;31888;44.512;26.104;2023-02-01T09:55:56;9.00;88.90
46159;DHT22;31888;44.512;26.104;2023-02-01T09:58:27;9.00;88.60
46159;DHT22;31888;44.512;26.104;2023-02-01T10:00:55;9.10;87.30
46159;DHT22;31888;44.512;26.104;2023-02-01T10:03:24;9.00;88.00
46159;DHT22;31888;44.512;26.104;2023-02-01T10:08:55;9.30;87.10
46159;DHT22;31888;44.512;26.104;2023-02-01T10:11:32;9.10;85.20
46159;DHT22;31888;44.512;26.104;2023-02-01T10:14:18;8.90;85.60
46159;DHT22;31888;44.512;26.104;2023-02-01T10:16:51;8.80;86.80
46159;DHT22;31888;44.512;26.104;2023-02-01T10:19:34;9.00;85.50
46159;DHT22;31888;44.512;26.104;2023-02-01T10:22:05;9.00;85.10
46159;DHT22;31888;44.512;26.104;2023-02-01T10:24:53;8.90;86.10
46159;DHT22;31888;44.512;26.104;2023-02-01T10:27:29;9.20;86.10
46159;DHT22;31888;44.512;26.104;2023-02-01T10:29:59;9.20;85.40
46159;DHT22;31888;44.512;26.104;2023-02-01T10:32:31;9.40;84.10
46159;DHT22;31888;44.512;26.104;2023-02-01T10:34:58;9.10;85.00
46159;DHT22;31888;44.512;26.104;2023-02-01T10:37:28;8.90;84.30
46159;DHT22;31888;44.512;26.104;2023-02-01T10:39:55;8.90;85.00
46159;DHT22;31888;44.512;26.104;2023-02-01T10:42:23;8.60;83.80
46159;DHT22;31888;44.512;26.104;2023-02-01T10:44:48;8.30;84.80
46159;DHT22;31888;44.512;26.104;2023-02-01T10:47:13;8.20;86.10
46159;DHT22;31888;44.512;26.104;2023-02-01T10:49:40;8.20;85.10
46159;DHT22;31888;44.512;26.104;2023-02-01T10:52:12;8.40;86.10
46159;DHT22;31888;44.512;26.104;2023-02-01T10:54:38;8.20;85.70
46159;DHT22;31888;44.512;26.104;2023-02-01T10:57:07;8.30;87.00
46159;DHT22;31888;44.512;26.104;2023-02-01T10:59:32;8.10;86.40
46159;DHT22;31888;44.512;26.104;2023-02-01T11:02:00;7.90;87.10
46159;DHT22;31888;44.512;26.104;2023-02-01T11:04:28;7.60;88.90
46159;DHT22;31888;44.512;26.104;2023-02-01T11:07:06;7.50;89.00
46159;DHT22;31888;44.512;26.104;2023-02-01T11:09:31;7.50;88.00
46159;DHT22;31888;44.512;26.104;2023-02-01T11:11:58;7.40;89.20
46159;DHT22;31888;44.512;26.104;2023-02-01T11:14:35;7.50;89.30
46159;DHT22;31888;44.512;26.104;2023-02-01T11:17:01;7.30;90.20
46159;DHT22;31888;44.512;26.104;2023-02-01T11:19:26;7.20;90.50
46159;DHT22;31888;44.512;26.104;2023-02-01T11:21:53;7.30;90.80
46159;DHT22;31888;44.512;26.104;2023-02-01T11:24:22;7.50;90.30
46159;DHT22;31888;44.512;26.104;2023-02-01T11:26:48;7.50;90.40
46159;DHT22;31888;44.512;26.104;2023-02-01T11:29:14;7.60;90.60
46159;DHT22;31888;44.512;26.104;2023-02-01T11:31:44;7.50;90.60
46159;DHT22;31888;44.512;26.104;2023-02-01T11:34:12;7.50;91.10
46159;DHT22;31888;44.512;26.104;2023-02-01T11:36:39;7.50;91.10
46159;DHT22;31888;44.512;26.104;2023-02-01T11:39:15;7.60;91.20
46159;DHT22;31888;44.512;26.104;2023-02-01T11:41:43;7.60;91.30
46159;DHT22;31888;44.512;26.104;2023-02-01T11:44:20;7.50;91.40
46159;DHT22;31888;44.512;26.104;2023-02-01T11:46:46;7.50;91.90
46159;DHT22;31888;44.512;26.104;2023-02-01T11:49:19;7.60;91.80
46159;DHT22;31888;44.512;26.104;2023-02-01T11:51:49;7.40;92.00
46159;DHT22;31888;44.512;26.104;2023-02-01T11:54:31;7.40;92.50
46159;DHT22;31888;44.512;26.104;2023-02-01T11:57:12;7.50;92.90
46159;DHT22;31888;44.512;26.104;2023-02-01T11:59:56;7.50;92.80
46159;DHT22;31888;44.512;26.104;2023-02-01T12:08:06;7.50;93.00
46159;DHT22;31888;44.512;26.104;2023-02-01T12:10:44;7.50;93.60
46159;DHT22;31888;44.512;26.104;2023-02-01T12:13:21;7.70;93.60
46159;DHT22;31888;44.512;26.104;2023-02-01T12:16:01;7.40;93.30
46159;DHT22;31888;44.512;26.104;2023-02-01T12:18:39;7.30;93.80
46159;DHT22;31888;44.512;26.104;2023-02-01T12:24:30;7.20;94.00
46159;DHT22;31888;44.512;26.104;2023-02-01T12:27:04;7.10;94.40
46159;DHT22;31888;44.512;26.104;2023-02-01T12:29:56;7.40;94.20
46159;DHT22;31888;44.512;26.104;2023-02-01T12:32:39;7.40;94.00
46159;DHT22;31888;44.512;26.104;2023-02-01T12:35:23;7.40;94.30
46159;DHT22;31888;44.512;26.104;2023-02-01T12:38:11;7.50;94.40
46159;DHT22;31888;44.512;26.104;2023-02-01T12:40:52;7.40;94.80
46159;DHT22;31888;44.512;26.104;2023-02-01T12:43:28;7.40;94.60
46159;DHT22;31888;44.512;26.104;2023-02-01T12:46:02;7.50;94.60
46159;DHT22;31888;44.512;26.104;2023-02-01T12:48:31;7.50;94.60
46159;DHT22;31888;44.512;26.104;2023-02-01T12:51:01;7.30;94.70
46159;DHT22;31888;44.512;26.104;2023-02-01T12:53:31;7.30;94.90
46159;DHT22;31888;44.512;26.104;2023-02-01T12:56:03;7.50;94.80
46159;DHT22;31888;44.512;26.104;2023-02-01T12:58:35;7.40;95.50
46159;DHT22;31888;44.512;26.104;2023-02-01T13:01:05;7.50;95.40
46159;DHT22;31888;44.512;26.104;2023-02-01T13:03:36;7.70;94.70
46159;DHT22;31888;44.512;26.104;2023-02-01T13:06:06;7.70;95.00
46159;DHT22;31888;44.512;26.104;2023-02-01T13:08:40;7.70;94.90
46159;DHT22;31888;44.512;26.104;2023-02-01T13:11:22;7.60;95.20
46159;DHT22;31888;44.512;26.104;2023-02-01T13:13:57;7.90;95.20
46159;DHT22;31888;44.512;26.104;2023-02-01T13:16:26;8.00;94.80
46159;DHT22;31888;44.512;26.104;2023-02-01T13:18:55;8.10;94.90
46159;DHT22;31888;44.512;26.104;2023-02-01T13:21:25;8.20;94.50
46159;DHT22;31888;44.512;26.104;2023-02-01T13:23:50;7.90;95.00
46159;DHT22;31888;44.512;26.104;2023-02-01T13:26:17;7.90;95.00
46159;DHT22;31888;44.512;26.104;2023-02-01T13:28:45;8.00;95.00
46159;DHT22;31888;44.512;26.104;2023-02-01T13:31:25;8.00;94.80
46159;DHT22;31888;44.512;26.104;2023-02-01T13:34:22;8.00;95.00
46159;DHT22;31888;44.512;26.104;2023-02-01T13:37:02;8.00;94.70
46159;DHT22;31888;44.512;26.104;2023-02-01T13:39:45;8.00;95.20
46159;DHT22;31888;44.512;26.104;2023-02-01T13:42:28;8.10;95.20
46159;DHT22;31888;44.512;26.104;2023-02-01T13:44:58;8.20;94.90
46159;DHT22;31888;44.512;26.104;2023-02-01T13:47:28;8.10;94.90
46159;DHT22;31888;44.512;26.104;2023-02-01T13:49:56;8.00;95.20
46159;DHT22;31888;44.512;26.104;2023-02-01T13:52:26;8.10;95.00
46159;DHT22;31888;44.512;26.104;2023-02-01T13:55:02;8.10;95.00
46159;DHT22;31888;44.512;26.104;2023-02-01T13:57:36;8.10;95.10
46159;DHT22;31888;44.512;26.104;2023-02-01T14:00:22;8.00;95.00
46159;DHT22;31888;44.512;26.104;2023-02-01T14:03:09;8.10;95.10
46159;DHT22;31888;44.512;26.104;2023-02-01T14:06:02;8.00;95.00
46159;DHT22;31888;44.512;26.104;2023-02-01T14:08:45;8.10;94.80
46159;DHT22;31888;44.512;26.104;2023-02-01T14:11:34;8.10;95.10
46159;DHT22;31888;44.512;26.104;2023-02-01T14:17:39;8.00;95.10
46159;DHT22;31888;44.512;26.104;2023-02-01T14:20:40;8.00;95.40
46159;DHT22;31888;44.512;26.104;2023-02-01T14:23:12;8.00;95.20
46159;DHT22;31888;44.512;26.104;2023-02-01T14:25:38;8.00;95.80
46159;DHT22;31888;44.512;26.104;2023-02-01T14:28:10;7.70;96.00
46159;DHT22;31888;44.512;26.104;2023-02-01T14:30:37;7.60;96.10
46159;DHT22;31888;44.512;26.104;2023-02-01T14:33:12;7.60;96.10
46159;DHT22;31888;44.512;26.104;2023-02-01T14:35:42;7.50;96.40
46159;DHT22;31888;44.512;26.104;2023-02-01T14:38:20;7.30;96.60
46159;DHT22;31888;44.512;26.104;2023-02-01T14:40:45;7.30;96.80
46159;DHT22;31888;44.512;26.104;2023-02-01T14:43:10;7.40;96.90
46159;DHT22;31888;44.512;26.104;2023-02-01T14:45:56;7.40;97.00
46159;DHT22;31888;44.512;26.104;2023-02-01T14:48:44;7.40;97.60
46159;DHT22;31888;44.512;26.104;2023-02-01T14:51:13;7.50;97.10
46159;DHT22;31888;44.512;26.104;2023-02-01T14:53:39;7.70;97.00
46159;DHT22;31888;44.512;26.104;2023-02-01T14:56:08;7.70;96.90
46159;DHT22;31888;44.512;26.104;2023-02-01T14:58:39;7.70;96.70
46159;DHT22;31888;44.512;26.104;2023-02-01T15:01:20;7.80;96.70
46159;DHT22;31888;44.512;26.104;2023-02-01T15:03:55;7.80;96.40
46159;DHT22;31888;44.512;26.104;2023-02-01T15:06:33;7.90;96.40
46159;DHT22;31888;44.512;26.104;2023-02-01T15:09:04;7.90;96.30
46159;DHT22;31888;44.512;26.104;2023-02-01T15:11:32;7.90;96.40
46159;DHT22;31888;44.512;26.104;2023-02-01T15:14:17;8.00;96.30
46159;DHT22;31888;44.512;26.104;2023-02-01T15:16:43;8.00;96.20
46159;DHT22;31888;44.512;26.104;2023-02-01T15:19:14;7.90;96.40
46159;DHT22;31888;44.512;26.104;2023-02-01T15:21:46;7.90;96.20
46159;DHT22;31888;44.512;26.104;2023-02-01T15:24:12;7.70;96.40
46159;DHT22;31888;44.512;26.104;2023-02-01T15:26:38;7.70;96.70
46159;DHT22;31888;44.512;26.104;2023-02-01T15:29:02;7.70;96.50
46159;DHT22;31888;44.512;26.104;2023-02-01T15:31:35;7.60;96.80
46159;DHT22;31888;44.512;26.104;2023-02-01T15:34:02;7.50;97.00
46159;DHT22;31888;44.512;26.104;2023-02-01T15:36:27;7.50;96.80
46159;DHT22;31888;44.512;26.104;2023-02-01T15:39:17;7.40;97.00
46159;DHT22;31888;44.512;26.104;2023-02-01T15:41:45;7.30;97.20
46159;DHT22;31888;44.512;26.104;2023-02-01T15:44:16;7.20;97.40
46159;DHT22;31888;44.512;26.104;2023-02-01T15:46:45;7.20;97.40
46159;DHT22;31888;44.512;26.104;2023-02-01T15:49:19;7.10;97.60
46159;DHT22;31888;44.512;26.104;2023-02-01T15:51:47;7.10;97.80
46159;DHT22;31888;44.512;26.104;2023-02-01T15:54:17;7.00;97.70
46159;DHT22;31888;44.512;26.104;2023-02-01T15:56:43;7.00;97.90
46159;DHT22;31888;44.512;26.104;2023-02-01T15:59:15;6.80;98.10
46159;DHT22;31888;44.512;26.104;2023-02-01T16:01:41;6.80;98.30
46159;DHT22;31888;44.512;26.104;2023-02-01T16:04:17;6.80;98.40
46159;DHT22;31888;44.512;26.104;2023-02-01T16:06:48;6.80;98.60
46159;DHT22;31888;44.512;26.104;2023-02-01T16:09:14;6.80;98.40
46159;DHT22;31888;44.512;26.104;2023-02-01T16:11:49;6.80;98.60